createdAt,value
2018-06-16T00:03:38.982Z,5
2018-06-16T00:13:44.641Z,5
2018-06-16T00:24:04.482Z,4.4
2018-06-16T00:34:18.476Z,5
2018-06-16T00:44:27.444Z,4.8
2018-06-16T00:54:50.866Z,4.6
2018-06-16T01:05:10.598Z,5.1
2018-06-16T01:15:29.816Z,4.6
2018-06-16T01:25:42.730Z,5.5
2018-06-16T01:35:50.353Z,4.9
2018-06-16T01:45:59.502Z,5.3
2018-06-16T01:56:04.297Z,5.3
2018-06-16T02:06:13.952Z,4.8
2018-06-16T02:16:24.581Z,5.3
2018-06-16T02:28:24.899Z,5.7
2018-06-16T02:38:39.597Z,6.4
2018-06-16T02:48:53.998Z,4.4
2018-06-16T02:59:13.009Z,5.2
2018-06-16T03:09:40.659Z,5.9
2018-06-16T03:19:59.553Z,5.2
2018-06-16T03:30:06.848Z,5.2
2018-06-16T03:40:15.530Z,5.6
2018-06-16T03:50:24.194Z,5.6
2018-06-16T04:00:36.725Z,3.9
2018-06-16T04:10:40.868Z,4.7
2018-06-16T04:20:56.650Z,4
2018-06-16T04:31:03.253Z,4.4
2018-06-16T04:41:08.301Z,5
2018-06-16T04:51:16.054Z,4.2
2018-06-16T05:01:15.562Z,4.6
2018-06-16T05:11:18.974Z,4.8
2018-06-16T05:21:24.367Z,3.3
2018-06-16T05:31:25.873Z,3.3
2018-06-16T05:41:26.217Z,3.5
2018-06-16T05:51:34.217Z,2.7
2018-06-16T06:01:35.068Z,2.8
2018-06-16T06:11:38.123Z,2.8
2018-06-16T06:21:44.356Z,2.6
2018-06-16T06:31:45.606Z,2.3
2018-06-16T06:41:48.871Z,2.1
2018-06-16T06:51:51.722Z,2.7
2018-06-16T07:01:52.373Z,2.5
2018-06-16T07:12:01.356Z,2.1
2018-06-16T07:22:02.207Z,2.8
2018-06-16T07:32:02.157Z,2
2018-06-16T07:42:04.157Z,1.9
2018-06-16T07:52:09.416Z,1.9
2018-06-16T08:02:10.064Z,2.3
2018-06-16T08:12:14.756Z,1.8
2018-06-16T08:22:18.806Z,2.3
2018-06-16T08:32:21.726Z,2.5
2018-06-16T08:42:24.622Z,2.1
2018-06-16T08:52:30.555Z,2.4
2018-06-16T09:02:29.892Z,2.3
2018-06-16T09:12:35.511Z,2
2018-06-16T09:22:35.064Z,2.8
2018-06-16T09:32:43.726Z,2
2018-06-16T09:42:43.359Z,2.7
2018-06-16T09:52:43.200Z,1.8
2018-06-16T10:02:42.745Z,1.7
2018-06-16T10:12:42.729Z,1.9
2018-06-16T10:22:53.020Z,1.8
2018-06-16T10:32:52.516Z,1.7
2018-06-16T10:42:57.029Z,1
2018-06-16T10:52:56.568Z,1.2
2018-06-16T11:02:56.925Z,1.4
2018-06-16T11:12:59.267Z,1.2
2018-06-16T11:22:59.063Z,1.3
2018-06-16T11:32:58.939Z,1.2
2018-06-16T11:43:02.301Z,1.2
2018-06-16T11:53:01.561Z,1.3
2018-06-16T12:03:01.194Z,1.3
2018-06-16T12:13:00.737Z,1.3
2018-06-16T12:23:09.786Z,1.4
2018-06-16T12:33:09.808Z,1.7
2018-06-16T12:43:18.471Z,1.9
2018-06-16T12:53:18.286Z,1.7
2018-06-16T13:03:18.094Z,1.8
2018-06-16T13:13:19.303Z,1.8
2018-06-16T13:23:18.597Z,2
2018-06-16T13:33:19.234Z,1.8
2018-06-16T13:43:19.973Z,2
2018-06-16T13:53:21.244Z,2.1
2018-06-16T14:03:38.803Z,2.3
2018-06-16T14:13:41.849Z,1.9
2018-06-16T14:23:47.821Z,1.9
2018-06-16T14:34:02.628Z,1.6
2018-06-16T14:44:12.393Z,2
2018-06-16T14:54:12.452Z,2.1
2018-06-16T15:04:14.285Z,2
2018-06-16T15:14:23.638Z,2.1
2018-06-16T15:24:41.304Z,1.7
2018-06-16T15:34:44.169Z,2.6
2018-06-16T15:44:47.626Z,1.7
2018-06-16T15:54:47.717Z,2.2
2018-06-16T16:04:51.231Z,2.2
2018-06-16T16:14:50.725Z,2.2
2018-06-16T16:24:54.054Z,2.3
2018-06-16T16:35:10.860Z,1.9
2018-06-16T16:45:20.391Z,3.2
2018-06-16T16:55:21.723Z,5.4
2018-06-16T17:05:21.248Z,4.8
2018-06-16T17:15:21.060Z,2.5
2018-06-16T17:25:21.454Z,2.1
2018-06-16T17:35:21.285Z,2.4
2018-06-16T17:45:21.974Z,2.6
2018-06-16T17:55:23.541Z,2.3
2018-06-16T18:05:23.868Z,2.7
2018-06-16T18:15:26.512Z,2.5
2018-06-16T18:25:28.184Z,2.5
2018-06-16T18:35:34.873Z,3.2
2018-06-16T18:45:35.591Z,3.3
2018-06-16T18:55:36.455Z,4.3
2018-06-16T19:05:36.423Z,3.7
2018-06-16T19:15:36.157Z,4.4
2018-06-16T19:25:39.223Z,4.7
2018-06-16T19:35:38.851Z,4.9
2018-06-16T19:45:38.293Z,4.7
2018-06-16T19:55:38.147Z,5.4
2018-06-16T20:05:39.011Z,6.2
2018-06-16T20:15:42.491Z,5.3
2018-06-16T20:25:41.899Z,4.6
2018-06-16T20:35:42.510Z,3.9
2018-06-16T20:45:42.933Z,3.6
2018-06-16T20:55:42.470Z,4.5
2018-06-16T21:05:44.619Z,3.7
2018-06-16T21:15:43.890Z,5.1
2018-06-16T21:25:43.415Z,4.6
2018-06-16T21:35:43.237Z,3.8
2018-06-16T21:45:45.614Z,3.7
2018-06-16T21:55:46.247Z,3.9
2018-06-16T22:05:45.829Z,3.8
2018-06-16T22:15:45.142Z,4.9
2018-06-16T22:25:44.612Z,4.9
2018-06-16T22:35:44.135Z,4.5
2018-06-16T22:45:43.371Z,4.3
2018-06-16T22:55:43.229Z,4.8
2018-06-16T23:05:42.457Z,5.7
2018-06-16T23:15:41.720Z,4.7
2018-06-16T23:25:40.947Z,3.3
2018-06-16T23:35:40.483Z,4.3
2018-06-16T23:45:40.826Z,4.1
2018-06-16T23:55:45.499Z,4.2
